sensor_id;sensor_type;location;lat;lon;timestamp;P1;durP1;ratioP1;P2;durP2;ratioP2
53843;SDS011;39744;53.314;5.710;2023-09-19T00:00:36;11.75;;;3.05;;
53843;SDS011;39744;53.314;5.710;2023-09-19T00:03:02;10.48;;;2.55;;
53843;SDS011;39744;53.314;5.710;2023-09-19T00:05:29;12.18;;;2.78;;
53843;SDS011;39744;53.314;5.710;2023-09-19T00:08:00;9.45;;;2.47;;
53843;SDS011;39744;53.314;5.710;2023-09-19T00:10:30;14.48;;;2.75;;
53843;SDS011;39744;53.314;5.710;2023-09-19T00:12:56;13.32;;;3.13;;
53843;SDS011;39744;53.314;5.710;2023-09-19T00:15:24;11.75;;;2.67;;
53843;SDS011;39744;53.314;5.710;2023-09-19T00:17:51;11.25;;;2.13;;
53843;SDS011;39744;53.314;5.710;2023-09-19T00:20:17;10.50;;;2.78;;
53843;SDS011;39744;53.314;5.710;2023-09-19T00:22:43;10.23;;;3.28;;
53843;SDS011;39744;53.314;5.710;2023-09-19T00:25:10;8.80;;;2.60;;
53843;SDS011;39744;53.314;5.710;2023-09-19T00:27:39;10.85;;;2.60;;
53843;SDS011;39744;53.314;5.710;2023-09-19T00:30:11;12.02;;;2.47;;
53843;SDS011;39744;53.314;5.710;2023-09-19T00:32:49;9.68;;;2.35;;
53843;SDS011;39744;53.314;5.710;2023-09-19T00:35:19;14.77;;;2.72;;
53843;SDS011;39744;53.314;5.710;2023-09-19T00:37:46;7.15;;;2.05;;
53843;SDS011;39744;53.314;5.710;2023-09-19T00:40:12;9.65;;;2.00;;
53843;SDS011;39744;53.314;5.710;2023-09-19T00:42:40;9.98;;;2.17;;
53843;SDS011;39744;53.314;5.710;2023-09-19T00:45:07;9.52;;;2.25;;
53843;SDS011;39744;53.314;5.710;2023-09-19T00:47:35;12.57;;;2.50;;
53843;SDS011;39744;53.314;5.710;2023-09-19T00:50:03;10.65;;;2.70;;
53843;SDS011;39744;53.314;5.710;2023-09-19T00:52:29;9.73;;;2.50;;
53843;SDS011;39744;53.314;5.710;2023-09-19T00:54:57;12.25;;;3.08;;
53843;SDS011;39744;53.314;5.710;2023-09-19T00:57:25;10.32;;;2.97;;
53843;SDS011;39744;53.314;5.710;2023-09-19T00:59:51;11.32;;;2.67;;
53843;SDS011;39744;53.314;5.710;2023-09-19T01:02:19;9.00;;;2.38;;
53843;SDS011;39744;53.314;5.710;2023-09-19T01:04:46;10.35;;;2.55;;
53843;SDS011;39744;53.314;5.710;2023-09-19T01:07:12;11.68;;;2.47;;
53843;SDS011;39744;53.314;5.710;2023-09-19T01:09:40;12.52;;;2.85;;
53843;SDS011;39744;53.314;5.710;2023-09-19T01:12:06;7.78;;;2.00;;
53843;SDS011;39744;53.314;5.710;2023-09-19T01:14:36;9.18;;;2.40;;
53843;SDS011;39744;53.314;5.710;2023-09-19T01:17:05;10.77;;;2.63;;
53843;SDS011;39744;53.314;5.710;2023-09-19T01:30:09;9.00;;;2.45;;
53843;SDS011;39744;53.314;5.710;2023-09-19T01:32:36;10.35;;;2.40;;
53843;SDS011;39744;53.314;5.710;2023-09-19T01:35:04;8.48;;;2.58;;
53843;SDS011;39744;53.314;5.710;2023-09-19T01:37:30;11.35;;;2.88;;
53843;SDS011;39744;53.314;5.710;2023-09-19T01:39:57;8.40;;;2.50;;
53843;SDS011;39744;53.314;5.710;2023-09-19T01:45:31;11.80;;;2.28;;
53843;SDS011;39744;53.314;5.710;2023-09-19T01:48:00;12.80;;;2.88;;
53843;SDS011;39744;53.314;5.710;2023-09-19T01:50:36;8.95;;;2.08;;
53843;SDS011;39744;53.314;5.710;2023-09-19T01:55:50;8.07;;;2.08;;
53843;SDS011;39744;53.314;5.710;2023-09-19T01:58:20;8.20;;;2.00;;
53843;SDS011;39744;53.314;5.710;2023-09-19T02:00:48;11.65;;;2.65;;
53843;SDS011;39744;53.314;5.710;2023-09-19T02:03:17;12.00;;;2.28;;
53843;SDS011;39744;53.314;5.710;2023-09-19T02:05:52;8.60;;;2.13;;
53843;SDS011;39744;53.314;5.710;2023-09-19T02:08:19;10.50;;;2.45;;
53843;SDS011;39744;53.314;5.710;2023-09-19T02:10:46;9.77;;;2.40;;
53843;SDS011;39744;53.314;5.710;2023-09-19T02:13:17;9.70;;;2.50;;
53843;SDS011;39744;53.314;5.710;2023-09-19T02:15:44;10.75;;;2.60;;
53843;SDS011;39744;53.314;5.710;2023-09-19T02:18:11;11.13;;;2.65;;
53843;SDS011;39744;53.314;5.710;2023-09-19T02:20:37;9.73;;;3.15;;
53843;SDS011;39744;53.314;5.710;2023-09-19T02:23:03;9.73;;;2.65;;
53843;SDS011;39744;53.314;5.710;2023-09-19T02:25:29;11.55;;;2.20;;
53843;SDS011;39744;53.314;5.710;2023-09-19T02:27:56;8.27;;;2.70;;
53843;SDS011;39744;53.314;5.710;2023-09-19T02:30:28;8.55;;;2.25;;
53843;SDS011;39744;53.314;5.710;2023-09-19T02:32:55;14.55;;;2.88;;
53843;SDS011;39744;53.314;5.710;2023-09-19T02:35:21;7.38;;;2.22;;
53843;SDS011;39744;53.314;5.710;2023-09-19T02:37:47;9.90;;;2.47;;
53843;SDS011;39744;53.314;5.710;2023-09-19T02:40:13;15.60;;;2.92;;
53843;SDS011;39744;53.314;5.710;2023-09-19T02:42:52;9.05;;;2.72;;
53843;SDS011;39744;53.314;5.710;2023-09-19T02:45:19;9.40;;;2.50;;
53843;SDS011;39744;53.314;5.710;2023-09-19T02:47:46;13.02;;;2.78;;
53843;SDS011;39744;53.314;5.710;2023-09-19T02:50:12;9.45;;;2.78;;
53843;SDS011;39744;53.314;5.710;2023-09-19T02:52:41;10.90;;;2.55;;
53843;SDS011;39744;53.314;5.710;2023-09-19T02:55:11;10.18;;;2.38;;
53843;SDS011;39744;53.314;5.710;2023-09-19T02:57:44;13.02;;;2.60;;
53843;SDS011;39744;53.314;5.710;2023-09-19T03:00:11;8.88;;;2.67;;
53843;SDS011;39744;53.314;5.710;2023-09-19T03:02:37;13.30;;;2.40;;
53843;SDS011;39744;53.314;5.710;2023-09-19T03:05:05;9.27;;;2.05;;
53843;SDS011;39744;53.314;5.710;2023-09-19T03:07:32;9.68;;;2.50;;
53843;SDS011;39744;53.314;5.710;2023-09-19T03:09:58;10.18;;;2.67;;
53843;SDS011;39744;53.314;5.710;2023-09-19T03:12:25;9.25;;;2.58;;
53843;SDS011;39744;53.314;5.710;2023-09-19T03:14:51;10.52;;;2.50;;
53843;SDS011;39744;53.314;5.710;2023-09-19T03:17:17;13.57;;;2.20;;
53843;SDS011;39744;53.314;5.710;2023-09-19T03:19:44;8.70;;;2.13;;
53843;SDS011;39744;53.314;5.710;2023-09-19T03:22:12;10.43;;;2.67;;
53843;SDS011;39744;53.314;5.710;2023-09-19T03:24:38;10.27;;;2.65;;
53843;SDS011;39744;53.314;5.710;2023-09-19T03:27:04;11.95;;;2.72;;
53843;SDS011;39744;53.314;5.710;2023-09-19T03:29:30;12.55;;;2.65;;
53843;SDS011;39744;53.314;5.710;2023-09-19T03:31:56;10.25;;;2.45;;
53843;SDS011;39744;53.314;5.710;2023-09-19T03:34:22;11.63;;;2.33;;
53843;SDS011;39744;53.314;5.710;2023-09-19T03:36:48;11.23;;;2.40;;
53843;SDS011;39744;53.314;5.710;2023-09-19T03:39:14;8.30;;;2.47;;
53843;SDS011;39744;53.314;5.710;2023-09-19T03:41:41;10.50;;;2.65;;
53843;SDS011;39744;53.314;5.710;2023-09-19T03:44:07;8.95;;;2.30;;
53843;SDS011;39744;53.314;5.710;2023-09-19T03:46:33;11.05;;;2.45;;
53843;SDS011;39744;53.314;5.710;2023-09-19T03:49:00;10.25;;;2.60;;
53843;SDS011;39744;53.314;5.710;2023-09-19T03:51:26;9.68;;;2.35;;
53843;SDS011;39744;53.314;5.710;2023-09-19T03:53:52;12.02;;;2.55;;
53843;SDS011;39744;53.314;5.710;2023-09-19T03:56:18;10.57;;;2.75;;
53843;SDS011;39744;53.314;5.710;2023-09-19T03:58:44;13.32;;;2.78;;
53843;SDS011;39744;53.314;5.710;2023-09-19T04:01:11;11.50;;;2.97;;
53843;SDS011;39744;53.314;5.710;2023-09-19T04:03:38;9.70;;;2.47;;
53843;SDS011;39744;53.314;5.710;2023-09-19T04:06:12;9.73;;;2.05;;
53843;SDS011;39744;53.314;5.710;2023-09-19T04:08:38;13.43;;;2.60;;
53843;SDS011;39744;53.314;5.710;2023-09-19T04:11:04;11.27;;;2.40;;
53843;SDS011;39744;53.314;5.710;2023-09-19T04:13:30;9.35;;;2.47;;
53843;SDS011;39744;53.314;5.710;2023-09-19T04:15:56;12.23;;;2.50;;
53843;SDS011;39744;53.314;5.710;2023-09-19T04:18:23;10.85;;;2.60;;
53843;SDS011;39744;53.314;5.710;2023-09-19T04:20:49;13.10;;;2.63;;
53843;SDS011;39744;53.314;5.710;2023-09-19T04:23:15;9.55;;;3.00;;
53843;SDS011;39744;53.314;5.710;2023-09-19T04:25:42;12.63;;;3.00;;
53843;SDS011;39744;53.314;5.710;2023-09-19T04:28:08;12.27;;;3.08;;
53843;SDS011;39744;53.314;5.710;2023-09-19T04:30:37;12.23;;;2.65;;
53843;SDS011;39744;53.314;5.710;2023-09-19T04:33:07;10.77;;;2.78;;
53843;SDS011;39744;53.314;5.710;2023-09-19T04:35:33;13.05;;;3.15;;
53843;SDS011;39744;53.314;5.710;2023-09-19T04:38:00;10.60;;;2.72;;
53843;SDS011;39744;53.314;5.710;2023-09-19T04:40:28;12.82;;;2.88;;
53843;SDS011;39744;53.314;5.710;2023-09-19T04:42:55;9.02;;;2.60;;
53843;SDS011;39744;53.314;5.710;2023-09-19T04:45:22;16.27;;;3.10;;
53843;SDS011;39744;53.314;5.710;2023-09-19T04:47:48;13.43;;;2.90;;
53843;SDS011;39744;53.314;5.710;2023-09-19T04:50:14;10.55;;;2.85;;
53843;SDS011;39744;53.314;5.710;2023-09-19T04:52:42;11.70;;;2.72;;
53843;SDS011;39744;53.314;5.710;2023-09-19T04:55:12;10.13;;;3.05;;
53843;SDS011;39744;53.314;5.710;2023-09-19T04:57:48;10.07;;;3.03;;
53843;SDS011;39744;53.314;5.710;2023-09-19T05:00:15;11.13;;;2.53;;
53843;SDS011;39744;53.314;5.710;2023-09-19T05:02:41;10.45;;;2.92;;
53843;SDS011;39744;53.314;5.710;2023-09-19T05:05:08;11.57;;;2.97;;
53843;SDS011;39744;53.314;5.710;2023-09-19T05:07:35;10.80;;;2.75;;
53843;SDS011;39744;53.314;5.710;2023-09-19T05:10:02;11.65;;;2.80;;
53843;SDS011;39744;53.314;5.710;2023-09-19T05:12:31;11.77;;;2.90;;
53843;SDS011;39744;53.314;5.710;2023-09-19T05:14:57;14.90;;;3.88;;
53843;SDS011;39744;53.314;5.710;2023-09-19T05:17:23;10.20;;;2.90;;
53843;SDS011;39744;53.314;5.710;2023-09-19T05:19:50;11.48;;;2.90;;
53843;SDS011;39744;53.314;5.710;2023-09-19T05:22:16;13.93;;;2.80;;
53843;SDS011;39744;53.314;5.710;2023-09-19T05:24:43;11.50;;;2.38;;
53843;SDS011;39744;53.314;5.710;2023-09-19T05:27:13;11.90;;;2.45;;
53843;SDS011;39744;53.314;5.710;2023-09-19T05:29:42;12.88;;;2.80;;
53843;SDS011;39744;53.314;5.710;2023-09-19T05:32:08;14.18;;;3.30;;
53843;SDS011;39744;53.314;5.710;2023-09-19T05:34:35;11.73;;;2.47;;
53843;SDS011;39744;53.314;5.710;2023-09-19T05:37:01;12.13;;;2.75;;
53843;SDS011;39744;53.314;5.710;2023-09-19T05:39:27;12.57;;;2.97;;
53843;SDS011;39744;53.314;5.710;2023-09-19T05:41:53;11.15;;;2.75;;
53843;SDS011;39744;53.314;5.710;2023-09-19T05:44:22;16.05;;;3.30;;
53843;SDS011;39744;53.314;5.710;2023-09-19T05:46:48;9.82;;;2.65;;
53843;SDS011;39744;53.314;5.710;2023-09-19T05:49:14;11.80;;;2.58;;
53843;SDS011;39744;53.314;5.710;2023-09-19T05:51:40;11.27;;;2.80;;
53843;SDS011;39744;53.314;5.710;2023-09-19T05:54:07;11.90;;;2.63;;
53843;SDS011;39744;53.314;5.710;2023-09-19T05:56:33;13.65;;;2.67;;
53843;SDS011;39744;53.314;5.710;2023-09-19T05:58:59;10.30;;;2.60;;
53843;SDS011;39744;53.314;5.710;2023-09-19T06:01:25;16.45;;;3.40;;
53843;SDS011;39744;53.314;5.710;2023-09-19T06:03:52;12.00;;;2.60;;
53843;SDS011;39744;53.314;5.710;2023-09-19T06:06:18;15.90;;;3.17;;
53843;SDS011;39744;53.314;5.710;2023-09-19T06:08:44;13.05;;;3.13;;
53843;SDS011;39744;53.314;5.710;2023-09-19T06:11:10;14.80;;;3.28;;
53843;SDS011;39744;53.314;5.710;2023-09-19T06:13:36;10.57;;;2.95;;
53843;SDS011;39744;53.314;5.710;2023-09-19T06:16:04;13.77;;;3.35;;
53843;SDS011;39744;53.314;5.710;2023-09-19T06:18:33;13.80;;;3.15;;
53843;SDS011;39744;53.314;5.710;2023-09-19T06:21:00;12.38;;;3.00;;
53843;SDS011;39744;53.314;5.710;2023-09-19T06:23:30;11.82;;;3.20;;
53843;SDS011;39744;53.314;5.710;2023-09-19T06:25:56;13.27;;;3.42;;
53843;SDS011;39744;53.314;5.710;2023-09-19T06:28:22;13.90;;;3.35;;
53843;SDS011;39744;53.314;5.710;2023-09-19T06:30:49;12.73;;;3.03;;
53843;SDS011;39744;53.314;5.710;2023-09-19T06:33:15;12.32;;;3.05;;
53843;SDS011;39744;53.314;5.710;2023-09-19T06:35:42;11.00;;;3.17;;
53843;SDS011;39744;53.314;5.710;2023-09-19T06:38:09;15.73;;;2.78;;
53843;SDS011;39744;53.314;5.710;2023-09-19T06:40:38;13.07;;;2.83;;
53843;SDS011;39744;53.314;5.710;2023-09-19T06:43:07;11.23;;;2.70;;
53843;SDS011;39744;53.314;5.710;2023-09-19T06:45:33;10.20;;;2.50;;
53843;SDS011;39744;53.314;5.710;2023-09-19T06:47:59;14.63;;;3.30;;
53843;SDS011;39744;53.314;5.710;2023-09-19T06:50:27;12.93;;;2.83;;
53843;SDS011;39744;53.314;5.710;2023-09-19T06:52:55;14.55;;;3.30;;
53843;SDS011;39744;53.314;5.710;2023-09-19T06:55:24;11.77;;;2.92;;
53843;SDS011;39744;53.314;5.710;2023-09-19T06:57:52;9.73;;;2.58;;
53843;SDS011;39744;53.314;5.710;2023-09-19T07:00:21;13.75;;;3.17;;
53843;SDS011;39744;53.314;5.710;2023-09-19T07:03:01;12.05;;;3.28;;
53843;SDS011;39744;53.314;5.710;2023-09-19T07:05:29;11.55;;;2.92;;
53843;SDS011;39744;53.314;5.710;2023-09-19T07:07:59;11.13;;;3.08;;
53843;SDS011;39744;53.314;5.710;2023-09-19T07:10:28;14.07;;;2.88;;
53843;SDS011;39744;53.314;5.710;2023-09-19T07:12:56;12.20;;;2.85;;
53843;SDS011;39744;53.314;5.710;2023-09-19T07:15:23;14.18;;;3.65;;
53843;SDS011;39744;53.314;5.710;2023-09-19T07:17:50;14.55;;;3.42;;
53843;SDS011;39744;53.314;5.710;2023-09-19T07:20:17;13.63;;;3.20;;
53843;SDS011;39744;53.314;5.710;2023-09-19T07:22:43;12.68;;;2.75;;
53843;SDS011;39744;53.314;5.710;2023-09-19T07:25:09;13.93;;;3.05;;
53843;SDS011;39744;53.314;5.710;2023-09-19T07:27:35;13.40;;;2.92;;
53843;SDS011;39744;53.314;5.710;2023-09-19T07:30:01;13.13;;;3.60;;
53843;SDS011;39744;53.314;5.710;2023-09-19T07:32:28;13.65;;;3.13;;
53843;SDS011;39744;53.314;5.710;2023-09-19T07:34:54;14.77;;;2.83;;
53843;SDS011;39744;53.314;5.710;2023-09-19T07:37:20;13.45;;;2.78;;
53843;SDS011;39744;53.314;5.710;2023-09-19T07:39:46;14.65;;;3.25;;
53843;SDS011;39744;53.314;5.710;2023-09-19T07:42:13;17.17;;;3.50;;
53843;SDS011;39744;53.314;5.710;2023-09-19T07:44:43;13.43;;;2.72;;
53843;SDS011;39744;53.314;5.710;2023-09-19T07:47:12;14.98;;;3.10;;
53843;SDS011;39744;53.314;5.710;2023-09-19T07:49:38;15.60;;;3.75;;
53843;SDS011;39744;53.314;5.710;2023-09-19T07:52:04;12.95;;;3.22;;
53843;SDS011;39744;53.314;5.710;2023-09-19T07:54:30;12.45;;;3.22;;
53843;SDS011;39744;53.314;5.710;2023-09-19T07:57:00;11.00;;;2.70;;
53843;SDS011;39744;53.314;5.710;2023-09-19T07:59:26;14.40;;;3.33;;
53843;SDS011;39744;53.314;5.710;2023-09-19T08:01:53;11.95;;;2.90;;
53843;SDS011;39744;53.314;5.710;2023-09-19T08:04:19;11.75;;;3.17;;
53843;SDS011;39744;53.314;5.710;2023-09-19T08:06:45;11.10;;;2.67;;
53843;SDS011;39744;53.314;5.710;2023-09-19T08:09:11;11.75;;;3.28;;
53843;SDS011;39744;53.314;5.710;2023-09-19T08:11:41;11.88;;;2.95;;
53843;SDS011;39744;53.314;5.710;2023-09-19T08:14:07;15.02;;;3.20;;
53843;SDS011;39744;53.314;5.710;2023-09-19T08:16:33;11.95;;;2.83;;
53843;SDS011;39744;53.314;5.710;2023-09-19T08:18:59;11.63;;;3.35;;
53843;SDS011;39744;53.314;5.710;2023-09-19T08:21:25;15.93;;;3.25;;
53843;SDS011;39744;53.314;5.710;2023-09-19T08:23:54;13.15;;;3.40;;
53843;SDS011;39744;53.314;5.710;2023-09-19T08:26:22;16.63;;;3.50;;
53843;SDS011;39744;53.314;5.710;2023-09-19T08:28:49;11.15;;;3.22;;
53843;SDS011;39744;53.314;5.710;2023-09-19T08:31:16;12.30;;;2.95;;
53843;SDS011;39744;53.314;5.710;2023-09-19T08:33:43;13.18;;;3.10;;
53843;SDS011;39744;53.314;5.710;2023-09-19T08:36:13;16.50;;;3.47;;
53843;SDS011;39744;53.314;5.710;2023-09-19T08:38:40;13.18;;;3.67;;
53843;SDS011;39744;53.314;5.710;2023-09-19T08:41:06;9.85;;;2.63;;
53843;SDS011;39744;53.314;5.710;2023-09-19T08:43:33;16.08;;;3.28;;
53843;SDS011;39744;53.314;5.710;2023-09-19T08:46:06;12.10;;;3.40;;
53843;SDS011;39744;53.314;5.710;2023-09-19T08:48:33;14.65;;;3.17;;
53843;SDS011;39744;53.314;5.710;2023-09-19T08:51:02;11.80;;;3.63;;
53843;SDS011;39744;53.314;5.710;2023-09-19T08:53:41;14.93;;;3.00;;
53843;SDS011;39744;53.314;5.710;2023-09-19T08:56:08;15.13;;;3.90;;
53843;SDS011;39744;53.314;5.710;2023-09-19T08:58:38;12.55;;;3.00;;
53843;SDS011;39744;53.314;5.710;2023-09-19T09:01:05;12.73;;;3.63;;
53843;SDS011;39744;53.314;5.710;2023-09-19T09:03:33;11.60;;;3.22;;
53843;SDS011;39744;53.314;5.710;2023-09-19T09:06:00;13.07;;;3.20;;
53843;SDS011;39744;53.314;5.710;2023-09-19T09:08:27;13.95;;;3.80;;
53843;SDS011;39744;53.314;5.710;2023-09-19T09:10:53;16.52;;;3.40;;
53843;SDS011;39744;53.314;5.710;2023-09-19T09:13:19;15.02;;;3.60;;
53843;SDS011;39744;53.314;5.710;2023-09-19T09:15:47;9.75;;;2.83;;
53843;SDS011;39744;53.314;5.710;2023-09-19T09:18:13;12.02;;;3.30;;
53843;SDS011;39744;53.314;5.710;2023-09-19T09:20:39;14.52;;;3.00;;
53843;SDS011;39744;53.314;5.710;2023-09-19T09:23:06;17.30;;;3.83;;
53843;SDS011;39744;53.314;5.710;2023-09-19T09:25:48;17.92;;;3.47;;
53843;SDS011;39744;53.314;5.710;2023-09-19T09:28:21;16.58;;;3.97;;
53843;SDS011;39744;53.314;5.710;2023-09-19T09:30:48;14.38;;;3.58;;
53843;SDS011;39744;53.314;5.710;2023-09-19T09:33:14;10.02;;;2.90;;
53843;SDS011;39744;53.314;5.710;2023-09-19T09:35:54;13.60;;;3.75;;
53843;SDS011;39744;53.314;5.710;2023-09-19T09:38:26;14.60;;;3.35;;
53843;SDS011;39744;53.314;5.710;2023-09-19T09:40:54;12.65;;;3.72;;
53843;SDS011;39744;53.314;5.710;2023-09-19T09:43:32;18.88;;;3.70;;
53843;SDS011;39744;53.314;5.710;2023-09-19T09:46:20;14.07;;;3.42;;
53843;SDS011;39744;53.314;5.710;2023-09-19T09:48:47;14.15;;;3.63;;
53843;SDS011;39744;53.314;5.710;2023-09-19T09:51:36;13.45;;;3.33;;
53843;SDS011;39744;53.314;5.710;2023-09-19T09:54:11;14.90;;;3.47;;
53843;SDS011;39744;53.314;5.710;2023-09-19T09:56:53;16.05;;;3.50;;
53843;SDS011;39744;53.314;5.710;2023-09-19T09:59:20;9.15;;;3.03;;
53843;SDS011;39744;53.314;5.710;2023-09-19T10:01:49;11.85;;;3.28;;
53843;SDS011;39744;53.314;5.710;2023-09-19T10:04:27;18.05;;;3.53;;
53843;SDS011;39744;53.314;5.710;2023-09-19T10:07:01;14.75;;;3.53;;
53843;SDS011;39744;53.314;5.710;2023-09-19T10:09:44;15.10;;;3.40;;
53843;SDS011;39744;53.314;5.710;2023-09-19T10:12:12;15.18;;;3.35;;
53843;SDS011;39744;53.314;5.710;2023-09-19T10:14:38;12.90;;;3.67;;
53843;SDS011;39744;53.314;5.710;2023-09-19T10:17:08;11.95;;;3.20;;
53843;SDS011;39744;53.314;5.710;2023-09-19T10:22:22;13.25;;;3.20;;
53843;SDS011;39744;53.314;5.710;2023-09-19T10:24:50;11.32;;;3.28;;
53843;SDS011;39744;53.314;5.710;2023-09-19T10:27:18;14.88;;;2.70;;
53843;SDS011;39744;53.314;5.710;2023-09-19T10:29:45;12.63;;;2.80;;
53843;SDS011;39744;53.314;5.710;2023-09-19T10:32:16;12.68;;;3.17;;
53843;SDS011;39744;53.314;5.710;2023-09-19T10:34:44;15.20;;;2.80;;
53843;SDS011;39744;53.314;5.710;2023-09-19T10:37:18;8.65;;;2.47;;
53843;SDS011;39744;53.314;5.710;2023-09-19T10:39:46;11.95;;;3.00;;
53843;SDS011;39744;53.314;5.710;2023-09-19T10:42:16;12.20;;;3.40;;
53843;SDS011;39744;53.314;5.710;2023-09-19T10:44:43;15.05;;;3.28;;
53843;SDS011;39744;53.314;5.710;2023-09-19T10:47:11;13.15;;;3.35;;
53843;SDS011;39744;53.314;5.710;2023-09-19T10:49:44;15.05;;;3.13;;
53843;SDS011;39744;53.314;5.710;2023-09-19T10:52:14;14.05;;;3.50;;
53843;SDS011;39744;53.314;5.710;2023-09-19T10:54:53;18.40;;;3.47;;
53843;SDS011;39744;53.314;5.710;2023-09-19T10:57:22;14.98;;;3.05;;
53843;SDS011;39744;53.314;5.710;2023-09-19T11:00:07;13.68;;;3.45;;
53843;SDS011;39744;53.314;5.710;2023-09-19T11:08:21;12.60;;;3.45;;
53843;SDS011;39744;53.314;5.710;2023-09-19T11:10:49;17.52;;;3.70;;
53843;SDS011;39744;53.314;5.710;2023-09-19T11:13:25;12.80;;;3.53;;
53843;SDS011;39744;53.314;5.710;2023-09-19T11:26:47;23.35;;;3.42;;
53843;SDS011;39744;53.314;5.710;2023-09-19T11:29:29;16.75;;;3.92;;
53843;SDS011;39744;53.314;5.710;2023-09-19T11:31:56;16.00;;;3.65;;
53843;SDS011;39744;53.314;5.710;2023-09-19T11:39:37;15.75;;;3.75;;
53843;SDS011;39744;53.314;5.710;2023-09-19T11:44:49;12.98;;;3.88;;
53843;SDS011;39744;53.314;5.710;2023-09-19T11:47:16;20.20;;;4.90;;
53843;SDS011;39744;53.314;5.710;2023-09-19T11:49:44;19.60;;;4.75;;
53843;SDS011;39744;53.314;5.710;2023-09-19T11:52:10;16.08;;;4.72;;
53843;SDS011;39744;53.314;5.710;2023-09-19T11:54:39;17.33;;;4.40;;
53843;SDS011;39744;53.314;5.710;2023-09-19T11:57:06;15.07;;;4.18;;
53843;SDS011;39744;53.314;5.710;2023-09-19T11:59:33;20.17;;;4.43;;
53843;SDS011;39744;53.314;5.710;2023-09-19T12:02:03;14.77;;;4.53;;
53843;SDS011;39744;53.314;5.710;2023-09-19T12:07:02;13.00;;;3.53;;
53843;SDS011;39744;53.314;5.710;2023-09-19T12:09:29;13.98;;;3.53;;
53843;SDS011;39744;53.314;5.710;2023-09-19T12:11:55;11.88;;;3.45;;
53843;SDS011;39744;53.314;5.710;2023-09-19T12:14:23;13.55;;;3.47;;
53843;SDS011;39744;53.314;5.710;2023-09-19T12:16:57;15.60;;;3.60;;
53843;SDS011;39744;53.314;5.710;2023-09-19T12:19:25;13.00;;;3.40;;
53843;SDS011;39744;53.314;5.710;2023-09-19T12:22:02;10.82;;;2.75;;
53843;SDS011;39744;53.314;5.710;2023-09-19T12:24:34;10.85;;;3.25;;
53843;SDS011;39744;53.314;5.710;2023-09-19T12:27:06;14.55;;;3.00;;
53843;SDS011;39744;53.314;5.710;2023-09-19T12:29:45;11.70;;;2.97;;
53843;SDS011;39744;53.314;5.710;2023-09-19T12:32:13;10.60;;;2.78;;
53843;SDS011;39744;53.314;5.710;2023-09-19T12:34:42;11.48;;;2.88;;
53843;SDS011;39744;53.314;5.710;2023-09-19T12:37:09;8.70;;;2.80;;
53843;SDS011;39744;53.314;5.710;2023-09-19T12:39:41;9.93;;;3.13;;
53843;SDS011;39744;53.314;5.710;2023-09-19T12:42:11;12.68;;;3.38;;
53843;SDS011;39744;53.314;5.710;2023-09-19T12:44:41;12.55;;;3.22;;
53843;SDS011;39744;53.314;5.710;2023-09-19T12:47:09;11.45;;;3.00;;
53843;SDS011;39744;53.314;5.710;2023-09-19T12:49:35;10.43;;;2.80;;
53843;SDS011;39744;53.314;5.710;2023-09-19T12:52:01;14.18;;;3.97;;
53843;SDS011;39744;53.314;5.710;2023-09-19T12:54:40;13.57;;;3.70;;
53843;SDS011;39744;53.314;5.710;2023-09-19T12:57:06;10.30;;;3.25;;
53843;SDS011;39744;53.314;5.710;2023-09-19T12:59:32;10.93;;;2.97;;
53843;SDS011;39744;53.314;5.710;2023-09-19T13:02:04;12.30;;;3.78;;
53843;SDS011;39744;53.314;5.710;2023-09-19T13:04:39;14.48;;;3.22;;
53843;SDS011;39744;53.314;5.710;2023-09-19T13:07:06;12.73;;;3.63;;
53843;SDS011;39744;53.314;5.710;2023-09-19T13:09:34;13.65;;;3.70;;
53843;SDS011;39744;53.314;5.710;2023-09-19T13:12:00;15.63;;;4.07;;
53843;SDS011;39744;53.314;5.710;2023-09-19T13:14:28;14.52;;;4.07;;
53843;SDS011;39744;53.314;5.710;2023-09-19T13:17:06;10.13;;;3.42;;
53843;SDS011;39744;53.314;5.710;2023-09-19T13:24:58;9.88;;;3.25;;
53843;SDS011;39744;53.314;5.710;2023-09-19T13:27:25;11.85;;;3.85;;
53843;SDS011;39744;53.314;5.710;2023-09-19T13:29:52;13.73;;;3.80;;
53843;SDS011;39744;53.314;5.710;2023-09-19T13:32:18;11.73;;;3.55;;
53843;SDS011;39744;53.314;5.710;2023-09-19T13:34:44;14.68;;;4.00;;
53843;SDS011;39744;53.314;5.710;2023-09-19T13:37:11;16.88;;;4.47;;
53843;SDS011;39744;53.314;5.710;2023-09-19T13:39:38;11.63;;;3.65;;
53843;SDS011;39744;53.314;5.710;2023-09-19T13:42:12;18.13;;;4.70;;
53843;SDS011;39744;53.314;5.710;2023-09-19T13:44:39;13.23;;;3.70;;
53843;SDS011;39744;53.314;5.710;2023-09-19T13:47:06;12.82;;;3.90;;
53843;SDS011;39744;53.314;5.710;2023-09-19T13:49:38;13.52;;;4.15;;
53843;SDS011;39744;53.314;5.710;2023-09-19T13:52:04;13.57;;;3.65;;
53843;SDS011;39744;53.314;5.710;2023-09-19T13:54:31;15.82;;;4.25;;
53843;SDS011;39744;53.314;5.710;2023-09-19T13:56:57;12.57;;;3.80;;
53843;SDS011;39744;53.314;5.710;2023-09-19T13:59:23;12.00;;;4.03;;
53843;SDS011;39744;53.314;5.710;2023-09-19T14:01:50;16.33;;;4.22;;
53843;SDS011;39744;53.314;5.710;2023-09-19T14:04:18;19.60;;;4.55;;
53843;SDS011;39744;53.314;5.710;2023-09-19T14:06:45;16.20;;;4.75;;
53843;SDS011;39744;53.314;5.710;2023-09-19T14:09:12;17.42;;;5.05;;
53843;SDS011;39744;53.314;5.710;2023-09-19T14:11:38;20.13;;;5.85;;
53843;SDS011;39744;53.314;5.710;2023-09-19T14:14:04;19.98;;;4.95;;
53843;SDS011;39744;53.314;5.710;2023-09-19T14:16:31;18.45;;;4.60;;
53843;SDS011;39744;53.314;5.710;2023-09-19T14:18:58;23.33;;;5.03;;
53843;SDS011;39744;53.314;5.710;2023-09-19T14:21:25;20.88;;;5.10;;
53843;SDS011;39744;53.314;5.710;2023-09-19T14:23:51;22.15;;;5.82;;
53843;SDS011;39744;53.314;5.710;2023-09-19T14:26:19;19.83;;;5.60;;
53843;SDS011;39744;53.314;5.710;2023-09-19T14:28:48;25.15;;;6.13;;
53843;SDS011;39744;53.314;5.710;2023-09-19T14:31:14;19.75;;;5.10;;
53843;SDS011;39744;53.314;5.710;2023-09-19T14:33:40;22.98;;;5.60;;
53843;SDS011;39744;53.314;5.710;2023-09-19T14:36:07;23.95;;;5.10;;
53843;SDS011;39744;53.314;5.710;2023-09-19T14:38:35;18.38;;;5.13;;
53843;SDS011;39744;53.314;5.710;2023-09-19T14:41:01;21.52;;;5.45;;
53843;SDS011;39744;53.314;5.710;2023-09-19T14:43:27;24.33;;;5.60;;
53843;SDS011;39744;53.314;5.710;2023-09-19T14:45:57;23.70;;;6.15;;
53843;SDS011;39744;53.314;5.710;2023-09-19T14:48:23;19.80;;;5.07;;
53843;SDS011;39744;53.314;5.710;2023-09-19T14:50:51;30.30;;;6.38;;
53843;SDS011;39744;53.314;5.710;2023-09-19T14:53:17;23.60;;;5.45;;
53843;SDS011;39744;53.314;5.710;2023-09-19T14:55:43;27.98;;;6.90;;
53843;SDS011;39744;53.314;5.710;2023-09-19T14:58:10;28.55;;;6.82;;
53843;SDS011;39744;53.314;5.710;2023-09-19T15:00:37;27.90;;;6.53;;
53843;SDS011;39744;53.314;5.710;2023-09-19T15:03:04;26.08;;;7.05;;
53843;SDS011;39744;53.314;5.710;2023-09-19T15:05:30;25.98;;;6.32;;
53843;SDS011;39744;53.314;5.710;2023-09-19T15:07:57;25.55;;;6.00;;
53843;SDS011;39744;53.314;5.710;2023-09-19T15:10:23;34.20;;;6.22;;
53843;SDS011;39744;53.314;5.710;2023-09-19T15:12:50;31.80;;;7.32;;
53843;SDS011;39744;53.314;5.710;2023-09-19T15:15:16;40.22;;;7.18;;
53843;SDS011;39744;53.314;5.710;2023-09-19T15:17:42;30.95;;;7.50;;
53843;SDS011;39744;53.314;5.710;2023-09-19T15:20:08;30.05;;;6.78;;
53843;SDS011;39744;53.314;5.710;2023-09-19T15:22:38;28.77;;;6.50;;
53843;SDS011;39744;53.314;5.710;2023-09-19T15:25:04;25.63;;;6.32;;
53843;SDS011;39744;53.314;5.710;2023-09-19T15:27:31;30.65;;;6.63;;
53843;SDS011;39744;53.314;5.710;2023-09-19T15:29:59;24.90;;;6.68;;
53843;SDS011;39744;53.314;5.710;2023-09-19T15:32:25;26.20;;;6.82;;